createdAt,value
2019-04-03T00:02:45.376Z,97049.79
2019-04-03T00:05:36.228Z,97047.09
2019-04-03T00:08:26.068Z,97046.61
2019-04-03T00:10:59.002Z,97047.71
2019-04-03T00:13:54.299Z,97038.80
2019-04-03T00:16:25.531Z,97042.54
2019-04-03T00:19:18.678Z,97039.08
2019-04-03T00:24:50.634Z,97027.33
2019-04-03T00:27:37.619Z,97027.97
2019-04-03T00:30:21.861Z,97021.16
2019-04-03T00:33:41.755Z,97022.55
2019-04-03T00:36:23.882Z,97014.52
2019-04-03T00:38:57.651Z,97016.27
2019-04-03T00:41:30.736Z,97015.70
2019-04-03T00:44:02.357Z,97016.62
2019-04-03T00:46:33.324Z,97013.03
2019-04-03T00:54:59.339Z,97010.53
2019-04-03T00:58:07.630Z,97013.44
2019-04-03T01:01:01.354Z,96903.43
2019-04-03T01:03:51.920Z,97014.66
2019-04-03T01:07:02.046Z,97001.12
2019-04-03T01:09:45.219Z,97012.10
2019-04-03T01:12:36.770Z,97007.20
2019-04-03T01:15:26.790Z,97011.67
2019-04-03T01:18:16.949Z,97009.48
2019-04-03T01:21:07.341Z,97017.16
2019-04-03T01:23:57.321Z,97012.86
2019-04-03T01:26:40.679Z,97020.46
2019-04-03T01:29:23.893Z,97014.41
2019-04-03T01:32:05.543Z,97019.48
2019-04-03T01:34:47.705Z,97008.12
2019-04-03T01:37:37.728Z,97011.61
2019-04-03T01:40:27.530Z,97005.41
2019-04-03T01:43:18.265Z,96997.42
2019-04-03T01:49:18.687Z,96989.14
2019-04-03T01:52:10.002Z,96987.94
2019-04-03T01:54:41.001Z,96979.64
2019-04-03T01:57:32.207Z,96982.66
2019-04-03T02:00:22.207Z,96979.59
2019-04-03T02:02:53.326Z,96977.66
2019-04-03T02:05:43.972Z,96965.33
2019-04-03T02:08:35.701Z,96967.95
2019-04-03T02:11:25.662Z,96966.89
2019-04-03T02:14:16.004Z,96857.05
2019-04-03T02:16:57.614Z,96970.73
2019-04-03T02:19:28.366Z,96965.39
2019-04-03T02:22:18.240Z,96963.62
2019-04-03T02:25:08.302Z,96959.39
2019-04-03T02:27:58.165Z,96958.08
2019-04-03T02:30:47.818Z,96957.95
2019-04-03T02:33:37.905Z,96956.97
2019-04-03T02:36:27.974Z,96955.17
2019-04-03T02:39:17.716Z,96956.97
2019-04-03T02:42:09.880Z,96951.83
2019-04-03T02:45:00.437Z,96955.67
2019-04-03T02:47:33.543Z,96963.69
2019-04-03T02:50:26.060Z,96959.27
2019-04-03T02:53:16.122Z,96865.67
2019-04-03T02:56:06.470Z,96960.25
2019-04-03T02:58:57.548Z,96966.91
2019-04-03T03:01:28.504Z,96884.37
2019-04-03T03:04:21.810Z,96959.42
2019-04-03T03:07:10.709Z,96964.66
2019-04-03T03:09:45.684Z,96965.23
2019-04-03T03:12:14.610Z,96965.86
2019-04-03T03:15:04.937Z,96964.11
2019-04-03T03:17:37.276Z,96964.88
2019-04-03T03:20:09.079Z,96961.34
2019-04-03T03:22:41.426Z,96963.52
2019-04-03T03:25:12.858Z,96959.95
2019-04-03T03:28:02.881Z,96963.77
2019-04-03T03:31:14.241Z,96961.77
2019-04-03T03:34:00.417Z,96953.33
2019-04-03T03:36:49.221Z,96957.84
2019-04-03T03:42:57.676Z,96959.41
2019-04-03T03:45:31.704Z,96939.03
2019-04-03T03:48:03.744Z,96960.98
2019-04-03T03:50:38.375Z,96956.08
2019-04-03T03:53:28.894Z,96952.06
2019-04-03T03:56:39.027Z,96950.39
2019-04-03T03:59:29.434Z,96950.77
2019-04-03T04:02:19.313Z,96951.04
2019-04-03T04:07:51.227Z,96943.34
2019-04-03T04:10:25.204Z,96942.77
2019-04-03T04:12:55.112Z,96942.29
2019-04-03T04:15:44.987Z,96941.36
2019-04-03T04:18:16.424Z,96940.62
2019-04-03T04:21:09.390Z,96935.41
2019-04-03T04:27:19.436Z,96935.07
2019-04-03T04:30:11.985Z,96940.77
2019-04-03T04:33:00.901Z,96939.23
2019-04-03T04:35:52.425Z,96932.70
2019-04-03T04:38:42.059Z,96929.02
2019-04-03T04:41:32.617Z,96927.84
2019-04-03T04:44:23.223Z,96934.00
2019-04-03T04:53:36.454Z,96920.81
2019-04-03T04:56:07.488Z,96918.11
2019-04-03T04:58:57.563Z,96914.52
2019-04-03T05:01:49.139Z,96783.31
2019-04-03T05:10:51.018Z,96908.37
2019-04-03T05:13:32.760Z,96905.76
2019-04-03T05:16:20.951Z,96900.03
2019-04-03T05:19:10.227Z,96902.88
2019-04-03T05:21:54.012Z,96902.04
2019-04-03T05:24:28.860Z,96900.39
2019-04-03T05:27:03.400Z,96901.34
2019-04-03T05:35:56.411Z,96895.42
2019-04-03T05:42:10.051Z,96903.38
2019-04-03T05:45:24.090Z,96901.84
2019-04-03T05:48:12.611Z,96901.00
2019-04-03T05:53:42.248Z,96895.78
2019-04-03T06:02:29.827Z,96891.28
2019-04-03T06:05:02.195Z,96894.70
2019-04-03T06:08:03.835Z,96894.69
2019-04-03T06:10:54.194Z,96891.48
2019-04-03T06:13:36.672Z,96879.59
2019-04-03T06:16:24.553Z,96871.77
2019-04-03T06:19:19.532Z,96872.57
2019-04-03T06:22:10.342Z,96866.41
2019-04-03T06:25:03.434Z,96859.75
2019-04-03T06:27:58.048Z,96862.45
2019-04-03T06:34:07.374Z,96860.18
2019-04-03T06:36:58.409Z,96860.05
2019-04-03T06:39:48.545Z,96856.83
2019-04-03T06:42:39.228Z,96854.44
2019-04-03T06:45:45.093Z,96858.83
2019-04-03T06:58:07.813Z,96857.94
2019-04-03T07:01:30.020Z,96853.37
2019-04-03T07:03:50.329Z,96852.00
2019-04-03T07:06:40.665Z,96846.88
2019-04-03T07:09:50.826Z,96849.20
2019-04-03T07:12:24.129Z,96842.07
2019-04-03T07:15:15.341Z,96843.72
2019-04-03T07:18:06.551Z,96844.09
2019-04-03T07:24:15.528Z,96846.08
2019-04-03T07:27:00.723Z,96852.62
2019-04-03T07:29:34.534Z,96846.06
2019-04-03T07:32:15.905Z,96844.99
2019-04-03T07:34:50.591Z,96849.97
2019-04-03T07:37:23.385Z,96843.55
2019-04-03T07:40:31.858Z,96849.09
2019-04-03T07:43:20.567Z,96843.66
2019-04-03T07:46:33.254Z,96847.70
2019-04-03T07:49:31.937Z,96842.71
2019-04-03T07:55:20.257Z,96835.17
2019-04-03T07:58:33.465Z,96829.89
2019-04-03T08:01:46.175Z,96821.84
2019-04-03T08:04:38.857Z,96845.08
2019-04-03T08:10:57.565Z,96850.83
2019-04-03T08:13:47.509Z,96853.58
2019-04-03T08:16:48.150Z,96853.27
2019-04-03T08:22:39.113Z,96854.06
2019-04-03T08:25:53.941Z,96718.47
2019-04-03T08:29:11.015Z,96862.86
2019-04-03T08:31:51.924Z,96860.37
2019-04-03T08:41:04.839Z,96860.47
2019-04-03T08:44:02.414Z,96859.68
2019-04-03T08:47:17.587Z,96859.69
2019-04-03T08:53:24.576Z,96868.23
2019-04-03T08:56:38.824Z,96872.34
2019-04-03T08:59:13.456Z,96871.14
2019-04-03T09:02:07.054Z,96865.89
2019-04-03T09:05:33.384Z,96869.55
2019-04-03T09:12:14.117Z,96867.04
2019-04-03T09:15:10.097Z,96867.56
2019-04-03T09:18:00.955Z,96856.74
2019-04-03T09:21:21.829Z,96849.22
2019-04-03T09:24:18.797Z,96860.39
2019-04-03T09:27:13.465Z,96761.33
2019-04-03T09:36:13.642Z,96831.59
2019-04-03T09:39:20.082Z,96829.24
2019-04-03T09:41:52.394Z,96822.92
2019-04-03T09:44:40.126Z,96808.52
2019-04-03T09:51:22.351Z,96794.41
2019-04-03T09:57:32.514Z,96785.31
2019-04-03T10:03:31.522Z,96785.42
2019-04-03T10:06:06.373Z,96783.20
2019-04-03T10:08:38.107Z,96776.52
2019-04-03T10:11:10.992Z,96779.10
2019-04-03T10:13:46.420Z,96777.00
2019-04-03T10:16:23.185Z,96776.52
2019-04-03T10:19:16.030Z,96771.56
2019-04-03T10:22:06.176Z,96765.11
2019-04-03T10:25:00.628Z,96761.30
2019-04-03T10:28:15.061Z,96750.53
2019-04-03T10:31:25.973Z,96748.56
2019-04-03T10:37:05.469Z,96736.64
2019-04-03T10:49:31.543Z,96715.59
2019-04-03T10:52:14.470Z,96707.59
2019-04-03T10:57:39.511Z,96699.05
2019-04-03T11:00:22.077Z,96688.98
2019-04-03T11:02:54.627Z,96685.81
2019-04-03T11:05:46.172Z,96683.19
2019-04-03T11:08:36.011Z,96672.47
2019-04-03T11:11:27.201Z,96666.62
2019-04-03T11:14:17.972Z,96660.58
2019-04-03T11:17:09.208Z,96662.22
2019-04-03T11:20:00.235Z,96658.95
2019-04-03T11:22:41.069Z,96652.39
2019-04-03T11:25:22.680Z,96645.70
2019-04-03T11:27:54.344Z,96642.25
2019-04-03T11:33:37.833Z,96635.91
2019-04-03T11:36:30.173Z,96635.36
2019-04-03T11:39:38.339Z,96628.65
2019-04-03T11:42:22.182Z,96621.21
2019-04-03T11:44:43.212Z,96610.30
2019-04-03T11:47:32.961Z,96609.95
2019-04-03T11:50:24.732Z,96604.95
2019-04-03T11:52:55.478Z,96600.08
2019-04-03T11:55:26.734Z,96588.16
2019-04-03T11:57:59.283Z,96595.34
2019-04-03T12:03:32.634Z,96591.63
2019-04-03T12:06:03.866Z,96589.02
2019-04-03T12:08:54.101Z,96586.89
2019-04-03T12:11:43.911Z,96586.24
2019-04-03T12:14:36.096Z,96585.89
2019-04-03T12:17:29.382Z,96573.91
2019-04-03T12:20:00.426Z,96569.89
2019-04-03T12:22:54.577Z,96575.78
2019-04-03T12:25:44.811Z,96578.25
2019-04-03T12:28:34.650Z,96578.36
2019-04-03T12:31:43.155Z,96577.28
2019-04-03T12:34:14.282Z,96588.87
2019-04-03T12:36:56.118Z,96584.36
2019-04-03T12:39:28.067Z,96588.80
2019-04-03T12:42:18.784Z,96588.98
2019-04-03T12:44:50.016Z,96590.00
2019-04-03T12:47:42.853Z,96595.02
2019-04-03T12:53:41.603Z,96595.36
2019-04-03T12:59:47.680Z,96576.58
2019-04-03T13:02:38.493Z,96565.31
2019-04-03T13:05:28.618Z,96564.77
2019-04-03T13:08:21.766Z,96574.48
2019-04-03T13:10:55.976Z,96571.27
2019-04-03T13:16:24.280Z,96542.27
2019-04-03T13:19:16.025Z,96536.05
2019-04-03T13:24:56.456Z,96533.56
2019-04-03T13:27:50.667Z,96519.79
2019-04-03T13:30:43.469Z,96526.27
2019-04-03T13:33:39.318Z,96515.45
2019-04-03T13:36:24.314Z,96511.99
2019-04-03T13:41:41.656Z,96525.42
2019-04-03T13:44:30.890Z,96522.28
2019-04-03T13:47:20.805Z,96519.16
2019-04-03T13:50:13.245Z,96529.62
2019-04-03T13:55:40.890Z,96518.28
2019-04-03T13:58:31.692Z,96507.69
2019-04-03T14:01:06.955Z,96383.16
2019-04-03T14:03:54.494Z,96487.37
2019-04-03T14:06:45.178Z,96482.98
2019-04-03T14:09:35.452Z,96475.34
2019-04-03T14:12:29.968Z,96473.14
2019-04-03T14:15:21.547Z,96471.69
2019-04-03T14:17:56.873Z,96467.01
2019-04-03T14:20:45.780Z,96466.18
2019-04-03T14:23:17.485Z,96467.80
2019-04-03T14:26:05.682Z,96476.91
2019-04-03T14:28:35.303Z,96482.73
2019-04-03T14:31:34.708Z,96468.68
2019-04-03T14:34:19.077Z,96481.73
2019-04-03T14:36:51.081Z,96483.11
2019-04-03T14:39:41.841Z,96478.64
2019-04-03T14:45:09.324Z,96330.11
2019-04-03T14:47:59.596Z,96472.91
2019-04-03T14:50:36.493Z,96470.22
2019-04-03T14:53:27.924Z,96468.83
2019-04-03T14:56:34.220Z,96461.05
2019-04-03T14:59:29.558Z,96471.05
2019-04-03T15:05:28.715Z,96457.70
2019-04-03T15:08:20.270Z,96458.98
2019-04-03T15:11:11.548Z,96449.36
2019-04-03T15:14:03.117Z,96456.27
2019-04-03T15:17:04.408Z,96468.71
2019-04-03T15:19:57.231Z,96469.98
2019-04-03T18:38:12.407Z,96674.70
2019-04-03T18:41:04.025Z,96668.34
2019-04-03T18:43:48.364Z,96679.11
2019-04-03T18:46:36.310Z,96683.64
2019-04-03T18:49:16.516Z,96689.67
2019-04-03T18:51:59.834Z,96693.36
2019-04-03T18:54:45.040Z,96706.02
2019-04-03T19:00:20.590Z,96718.08
2019-04-03T19:03:11.204Z,96724.16
2019-04-03T19:06:04.064Z,96718.59
2019-04-03T19:08:36.495Z,96724.25
2019-04-03T19:11:27.820Z,96722.09
2019-04-03T19:27:50.064Z,96700.03
2019-04-03T19:30:43.141Z,96711.34
2019-04-03T19:33:48.240Z,96711.77
2019-04-03T19:36:44.833Z,96712.11
2019-04-03T19:45:51.432Z,96715.08
2019-04-03T19:48:22.052Z,96717.42
2019-04-03T19:51:06.948Z,96716.91
2019-04-03T19:53:41.124Z,96713.93
2019-04-03T19:56:49.371Z,96705.95
2019-04-03T19:59:29.814Z,96706.55
2019-04-03T20:04:23.334Z,96699.86
2019-04-03T20:07:15.888Z,96704.06
2019-04-03T20:10:06.971Z,96687.77
2019-04-03T20:12:40.305Z,96631.98
2019-04-03T20:15:36.743Z,96675.52
2019-04-03T20:18:30.411Z,96677.54
2019-04-03T20:21:20.447Z,96675.06
2019-04-03T20:24:12.846Z,96675.32
2019-04-03T20:27:05.364Z,96668.11
2019-04-03T20:35:55.124Z,96671.38
2019-04-03T20:38:44.233Z,96669.67
2019-04-03T20:41:34.804Z,96669.12
2019-04-03T20:44:05.237Z,96669.12
2019-04-03T20:46:36.314Z,96673.21
2019-04-03T20:49:30.265Z,96664.56
2019-04-03T20:52:12.252Z,96663.78
2019-04-03T20:54:53.996Z,96666.84
2019-04-03T20:57:36.097Z,96663.66
2019-04-03T21:03:02.836Z,96661.55
2019-04-03T21:05:44.222Z,96665.36
2019-04-03T21:08:28.146Z,96673.47
2019-04-03T21:11:09.490Z,96680.81
2019-04-03T21:13:40.196Z,96685.65
2019-04-03T21:16:33.323Z,96684.04
2019-04-03T21:19:02.493Z,96679.44
2019-04-03T21:21:32.560Z,96680.99
2019-04-03T21:24:04.010Z,96684.60
2019-04-03T21:26:37.678Z,96689.48
2019-04-03T21:29:26.008Z,96690.25
2019-04-03T21:32:15.191Z,96688.31
2019-04-03T21:37:56.317Z,96676.16
2019-04-03T21:40:47.480Z,96672.27
2019-04-03T21:43:37.670Z,96665.08
2019-04-03T21:46:29.679Z,96664.80
2019-04-03T21:49:20.459Z,96673.30
2019-04-03T21:51:51.837Z,96681.11
2019-04-03T21:54:22.765Z,96679.09
2019-04-03T21:56:53.891Z,96685.52
2019-04-03T21:59:43.038Z,96679.48
2019-04-03T22:02:35.494Z,96678.59
2019-04-03T22:05:07.364Z,96677.86
2019-04-03T22:07:58.882Z,96688.05
2019-04-03T22:10:50.511Z,96681.29
2019-04-03T22:13:39.808Z,96674.05
2019-04-03T22:16:09.888Z,96675.90
2019-04-03T22:18:59.017Z,96666.64
2019-04-03T22:21:48.138Z,96670.36
2019-04-03T22:24:37.813Z,96678.75
2019-04-03T22:27:46.451Z,96679.50
2019-04-03T22:30:17.403Z,96677.13
2019-04-03T22:33:06.672Z,96662.14
2019-04-03T22:35:36.812Z,96635.47
2019-04-03T22:38:07.838Z,96661.25
2019-04-03T22:40:57.472Z,96663.59
2019-04-03T22:46:25.375Z,96658.42
2019-04-03T22:48:56.308Z,96664.07
2019-04-03T22:51:38.534Z,96665.37
2019-04-03T22:54:20.540Z,96665.05
2019-04-03T22:57:02.002Z,96659.08
2019-04-03T22:59:32.619Z,96658.83
2019-04-03T23:02:23.035Z,96661.24
2019-04-03T23:05:12.372Z,96668.48
2019-04-03T23:07:42.489Z,96655.78
2019-04-03T23:10:31.589Z,96641.12
2019-04-03T23:13:20.694Z,96639.77
2019-04-03T23:15:51.573Z,96640.34
2019-04-03T23:18:40.666Z,96646.56
2019-04-03T23:21:30.364Z,96633.28
2019-04-03T23:24:20.025Z,96630.17
2019-04-03T23:27:28.053Z,96616.04
2019-04-03T23:30:17.980Z,96570.55
2019-04-03T23:33:26.592Z,96611.52
2019-04-03T23:35:58.270Z,96603.08
2019-04-03T23:38:47.459Z,96612.41
2019-04-03T23:41:37.063Z,96597.42
2019-04-03T23:44:11.632Z,96588.17
2019-04-03T23:46:45.359Z,96576.51
2019-04-03T23:49:34.802Z,96556.36
2019-04-03T23:55:18.381Z,96570.97
2019-04-03T23:58:27.344Z,96573.67
